Wetterstation Vordersexau
Wetterdaten: Woche 23.05.16 - 29.05.16 (KW21)
Datum Zeit Temp. A. Feuchte A. Luftdruck Regen Wind Richtung Taupunkt Windchill Windben
23.05.2016 00:00 12,3 C 81 % 1010,9 hPa 0,0 l/m 17,5 km/h S 9,1 C 7,0 C 9,7 km/h
23.05.2016 01:00 11,4 C 85 % 1010,7 hPa 0,8 l/m 4,5 km/h W-SW 9,0 C 11,4 C 2,5 km/h
23.05.2016 02:00 11,1 C 85 % 1010,5 hPa 0,0 l/m 21,4 km/h W-SW 8,7 C 4,3 C 11,9 km/h
23.05.2016 03:00 10,3 C 85 % 1010,4 hPa 0,4 l/m 9,1 km/h S-SO 7,9 C 8,5 C 5,0 km/h
23.05.2016 04:00 9,9 C 85 % 1011,1 hPa 1,2 l/m 4,5 km/h S-SW 7,5 C 9,9 C 2,5 km/h
23.05.2016 05:00 9,5 C 85 % 1011,1 hPa 1,2 l/m 1,3 km/h S-SW 7,1 C 9,5 C 0,7 km/h
23.05.2016 06:00 9,6 C 85 % 1011,1 hPa 0,4 l/m 1,9 km/h W-SW 7,2 C 9,6 C 1,1 km/h
23.05.2016 07:00 9,6 C 85 % 1011,1 hPa 0,0 l/m 3,9 km/h W 7,2 C 9,6 C 2,2 km/h
23.05.2016 08:00 9,5 C 85 % 1011,6 hPa 0,8 l/m 7,8 km/h S 7,1 C 8,5 C 4,3 km/h
23.05.2016 09:00 9,6 C 85 % 1012,0 hPa 0,4 l/m 24,0 km/h W-SW 7,2 C 1,6 C 13,3 km/h
23.05.2016 10:00 9,6 C 85 % 1012,7 hPa 0,4 l/m 4,5 km/h S-SW 7,2 C 9,6 C 2,5 km/h
23.05.2016 11:00 10,9 C 86 % 1012,7 hPa 0,8 l/m 24,0 km/h SW 8,7 C 3,3 C 13,3 km/h
23.05.2016 12:00 11,5 C 86 % 1012,5 hPa 0,0 l/m 7,1 km/h S-SW 9,2 C 11,0 C 4,0 km/h
23.05.2016 13:00 11,1 C 85 % 1012,5 hPa 0,4 l/m 0,0 km/h W-SW 8,7 C 11,1 C 0,0 km/h
23.05.2016 14:00 12,0 C 85 % 1012,7 hPa 0,4 l/m 8,4 km/h W-SW 9,6 C 10,7 C 4,7 km/h
23.05.2016 15:00 11,3 C 85 % 1012,7 hPa 0,0 l/m 21,4 km/h S-SO 8,9 C 4,6 C 11,9 km/h
23.05.2016 16:00 10,6 C 86 % 1013,0 hPa 0,4 l/m 0,6 km/h S-SW 8,4 C 10,6 C 0,4 km/h
23.05.2016 17:00 10,3 C 86 % 1013,0 hPa 0,8 l/m 0,6 km/h S 8,1 C 10,3 C 0,4 km/h
23.05.2016 18:00 10,2 C 86 % 1012,8 hPa 0,8 l/m 0,0 km/h S-SW 8,0 C 10,2 C 0,0 km/h
23.05.2016 19:00 9,9 C 85 % 1013,0 hPa 0,4 l/m 4,5 km/h W 7,5 C 9,9 C 2,5 km/h
23.05.2016 20:00 9,8 C 85 % 1013,0 hPa 0,4 l/m 0,0 km/h W-SW 7,4 C 9,8 C 0,0 km/h
23.05.2016 21:00 9,9 C 83 % 1013,2 hPa 0,8 l/m 10,4 km/h W 7,2 C 7,3 C 5,8 km/h
23.05.2016 22:00 10,0 C 81 % 1013,6 hPa 0,8 l/m 0,6 km/h W-NW 6,9 C 10,0 C 0,4 km/h
23.05.2016 23:00 10,1 C 80 % 1013,8 hPa 1,7 l/m 0,0 km/h W 6,8 C 10,1 C 0,0 km/h
24.05.2016 00:00 10,1 C 79 % 1013,7 hPa 0,4 l/m 0,0 km/h W 6,6 C 10,1 C 0,0 km/h
24.05.2016 01:00 10,2 C 78 % 1013,8 hPa 0,0 l/m 0,0 km/h W 6,5 C 10,2 C 0,0 km/h
24.05.2016 02:00 10,2 C 78 % 1013,6 hPa 0,4 l/m 0,0 km/h S 6,5 C 10,2 C 0,0 km/h
24.05.2016 03:00 10,1 C 78 % 1013,6 hPa 0,0 l/m 7,8 km/h S-SW 6,4 C 9,1 C 4,3 km/h
24.05.2016 04:00 10,1 C 78 % 1013,9 hPa 0,0 l/m 0,0 km/h S-SW 6,4 C 10,1 C 0,0 km/h
24.05.2016 05:00 10,0 C 78 % 1014,0 hPa 0,4 l/m 0,0 km/h W 6,3 C 10,0 C 0,0 km/h
24.05.2016 06:00 9,9 C 78 % 1014,1 hPa 0,0 l/m 0,0 km/h W 6,2 C 9,9 C 0,0 km/h
24.05.2016 07:00 10,3 C 77 % 1014,1 hPa 0,0 l/m 0,0 km/h W 6,4 C 10,3 C 0,0 km/h
24.05.2016 08:00 10,9 C 78 % 1013,9 hPa 0,4 l/m 1,9 km/h W 7,2 C 10,9 C 1,1 km/h
24.05.2016 09:00 11,1 C 83 % 1014,0 hPa 0,0 l/m 1,9 km/h W-SW 8,3 C 11,1 C 1,1 km/h
24.05.2016 10:00 12,1 C 86 % 1014,3 hPa 0,0 l/m 4,5 km/h W 9,8 C 12,1 C 2,5 km/h
24.05.2016 11:00 13,7 C 86 % 1014,2 hPa 0,0 l/m 0,0 km/h N 11,4 C 13,7 C 0,0 km/h
24.05.2016 12:00 13,5 C 84 % 1014,0 hPa 0,0 l/m 5,2 km/h N-NO 10,8 C 13,5 C 2,9 km/h
24.05.2016 13:00 13,3 C 82 % 1013,9 hPa 0,0 l/m 0,0 km/h W 10,3 C 13,3 C 0,0 km/h
24.05.2016 14:00 14,6 C 77 % 1013,6 hPa 0,0 l/m 5,8 km/h O-NO 10,6 C 14,6 C 3,2 km/h
24.05.2016 15:00 17,4 C 69 % 1013,3 hPa 0,0 l/m 0,0 km/h W 11,7 C 17,4 C 0,0 km/h
24.05.2016 16:00 14,4 C 74 % 1013,2 hPa 0,0 l/m 0,0 km/h N 9,8 C 14,4 C 0,0 km/h
24.05.2016 17:00 13,0 C 80 % 1012,8 hPa 0,0 l/m 0,0 km/h N 9,6 C 13,0 C 0,0 km/h
24.05.2016 18:00 12,6 C 82 % 1012,7 hPa 0,0 l/m 0,0 km/h S-SO 9,6 C 12,6 C 0,0 km/h
24.05.2016 19:00 12,3 C 84 % 1012,8 hPa 0,0 l/m 0,0 km/h N-NO 9,7 C 12,3 C 0,0 km/h
24.05.2016 20:00 11,9 C 84 % 1012,6 hPa 0,0 l/m 0,0 km/h N 9,3 C 11,9 C 0,0 km/h
24.05.2016 21:00 11,6 C 84 % 1012,8 hPa 0,0 l/m 0,0 km/h O-NO 9,0 C 11,6 C 0,0 km/h
24.05.2016 22:00 10,9 C 85 % 1012,7 hPa 0,0 l/m 0,0 km/h O-NO 8,5 C 10,9 C 0,0 km/h
24.05.2016 23:00 10,7 C 86 % 1012,7 hPa 0,0 l/m 0,0 km/h O-NO 8,5 C 10,7 C 0,0 km/h
25.05.2016 00:00 9,5 C 86 % 1012,5 hPa 0,0 l/m 0,0 km/h O-NO 7,3 C 9,5 C 0,0 km/h
25.05.2016 01:00 7,9 C 87 % 1012,3 hPa 0,0 l/m 0,0 km/h O-NO 5,9 C 7,9 C 0,0 km/h
25.05.2016 02:00 7,5 C 87 % 1012,2 hPa 0,0 l/m 0,0 km/h O-NO 5,5 C 7,5 C 0,0 km/h
25.05.2016 03:00 6,6 C 87 % 1012,0 hPa 0,0 l/m 0,0 km/h O-NO 4,6 C 6,6 C 0,0 km/h
25.05.2016 04:00 5,8 C 87 % 1011,9 hPa 0,0 l/m 0,0 km/h O-NO 3,8 C 5,8 C 0,0 km/h
25.05.2016 05:00 5,5 C 86 % 1012,0 hPa 0,0 l/m 0,0 km/h O-NO 3,3 C 5,5 C 0,0 km/h
25.05.2016 06:00 6,2 C 86 % 1012,2 hPa 0,0 l/m 0,0 km/h O-NO 4,0 C 6,2 C 0,0 km/h
25.05.2016 07:00 10,4 C 74 % 1012,1 hPa 0,0 l/m 0,0 km/h NW 6,0 C 10,4 C 0,0 km/h
25.05.2016 08:00 17,8 C 70 % 1012,4 hPa 0,0 l/m 1,9 km/h W 12,3 C 17,8 C 1,1 km/h
25.05.2016 09:00 19,9 C 62 % 1012,2 hPa 0,0 l/m 0,0 km/h W-SW 12,4 C 19,9 C 0,0 km/h
25.05.2016 10:00 20,3 C 60 % 1012,3 hPa 0,0 l/m 9,7 km/h SW 12,3 C 19,1 C 5,4 km/h
25.05.2016 11:00 21,2 C 59 % 1012,0 hPa 0,0 l/m 0,0 km/h W 12,9 C 21,2 C 0,0 km/h
25.05.2016 12:00 20,9 C 58 % 1011,7 hPa 0,0 l/m 2,6 km/h W-SW 12,3 C 20,9 C 1,4 km/h
25.05.2016 13:00 22,4 C 57 % 1011,2 hPa 0,0 l/m 4,5 km/h S-SW 13,5 C 22,4 C 2,5 km/h
25.05.2016 14:00 23,9 C 54 % 1011,2 hPa 0,0 l/m 4,5 km/h W-NW 14,0 C 23,9 C 2,5 km/h
25.05.2016 15:00 23,9 C 51 % 1011,0 hPa 0,0 l/m 2,6 km/h W 13,1 C 23,9 C 1,4 km/h
25.05.2016 16:00 22,4 C 53 % 1011,0 hPa 0,0 l/m 0,0 km/h W 12,3 C 22,4 C 0,0 km/h
25.05.2016 17:00 22,4 C 51 % 1011,1 hPa 0,0 l/m 0,0 km/h W 11,8 C 22,4 C 0,0 km/h
25.05.2016 18:00 19,5 C 56 % 1011,1 hPa 0,0 l/m 0,0 km/h W 10,5 C 19,5 C 0,0 km/h
25.05.2016 19:00 20,6 C 59 % 1011,2 hPa 0,0 l/m 0,0 km/h W 12,3 C 20,6 C 0,0 km/h
25.05.2016 20:00 16,5 C 70 % 1011,5 hPa 0,0 l/m 0,0 km/h S 11,0 C 16,5 C 0,0 km/h
25.05.2016 21:00 13,6 C 76 % 1012,1 hPa 0,0 l/m 0,0 km/h SO 9,4 C 13,6 C 0,0 km/h
25.05.2016 22:00 12,1 C 80 % 1012,3 hPa 0,0 l/m 0,0 km/h SO 8,8 C 12,1 C 0,0 km/h
25.05.2016 23:00 11,2 C 83 % 1012,4 hPa 0,0 l/m 0,0 km/h SO 8,4 C 11,2 C 0,0 km/h
26.05.2016 00:00 10,4 C 83 % 1012,6 hPa 0,0 l/m 0,0 km/h SO 7,6 C 10,4 C 0,0 km/h
26.05.2016 01:00 9,5 C 84 % 1012,8 hPa 0,0 l/m 0,0 km/h NO 6,9 C 9,5 C 0,0 km/h
26.05.2016 02:00 8,9 C 85 % 1012,9 hPa 0,0 l/m 0,0 km/h NO 6,5 C 8,9 C 0,0 km/h
26.05.2016 03:00 8,0 C 86 % 1013,1 hPa 0,0 l/m 0,0 km/h NO 5,8 C 8,0 C 0,0 km/h
26.05.2016 04:00 7,7 C 86 % 1013,1 hPa 0,0 l/m 0,0 km/h NO 5,5 C 7,7 C 0,0 km/h
26.05.2016 05:00 7,6 C 86 % 1013,5 hPa 0,0 l/m 0,0 km/h O-NO 5,4 C 7,6 C 0,0 km/h
26.05.2016 06:00 8,9 C 86 % 1013,2 hPa 0,0 l/m 0,0 km/h O-NO 6,7 C 8,9 C 0,0 km/h
26.05.2016 07:00 12,4 C 85 % 1013,9 hPa 0,0 l/m 0,0 km/h N-NO 9,9 C 12,4 C 0,0 km/h
26.05.2016 08:00 15,5 C 80 % 1013,6 hPa 0,0 l/m 0,0 km/h N 12,1 C 15,5 C 0,0 km/h
26.05.2016 09:00 23,0 C 57 % 1013,5 hPa 0,0 l/m 0,0 km/h W-SW 14,0 C 23,0 C 0,0 km/h
26.05.2016 10:00 24,1 C 57 % 1013,4 hPa 0,0 l/m 0,0 km/h W 15,0 C 24,1 C 0,0 km/h
26.05.2016 11:00 24,4 C 55 % 1013,0 hPa 0,0 l/m 0,0 km/h N-NW 14,8 C 24,4 C 0,0 km/h
26.05.2016 12:00 24,4 C 53 % 1012,7 hPa 0,0 l/m 0,0 km/h S-SW 14,2 C 24,4 C 0,0 km/h
26.05.2016 13:00 26,7 C 52 % 1012,3 hPa 0,0 l/m 0,0 km/h S 16,0 C 26,7 C 0,0 km/h
26.05.2016 14:00 28,1 C 46 % 1012,0 hPa 0,0 l/m 0,0 km/h W 15,4 C 28,1 C 0,0 km/h
26.05.2016 15:00 28,7 C 45 % 1011,8 hPa 0,0 l/m 0,0 km/h W 15,6 C 28,7 C 0,0 km/h
26.05.2016 16:00 31,2 C 38 % 1011,1 hPa 0,0 l/m 0,0 km/h W 15,2 C 31,2 C 0,0 km/h
26.05.2016 17:00 28,6 C 43 % 1010,9 hPa 0,0 l/m 3,2 km/h W 14,8 C 28,6 C 1,8 km/h
26.05.2016 18:00 27,3 C 41 % 1010,3 hPa 0,0 l/m 0,0 km/h W-NW 12,9 C 27,3 C 0,0 km/h
26.05.2016 19:00 23,1 C 57 % 1010,0 hPa 0,0 l/m 0,0 km/h S-SW 14,1 C 23,1 C 0,0 km/h
26.05.2016 20:00 19,8 C 66 % 1010,2 hPa 0,0 l/m 0,0 km/h S 13,3 C 19,8 C 0,0 km/h
26.05.2016 21:00 16,6 C 74 % 1010,1 hPa 0,0 l/m 0,0 km/h SO 11,9 C 16,6 C 0,0 km/h
26.05.2016 22:00 16,5 C 75 % 1010,4 hPa 0,0 l/m 0,0 km/h O-SO 12,1 C 16,5 C 0,0 km/h
26.05.2016 23:00 15,4 C 77 % 1010,4 hPa 0,0 l/m 0,0 km/h O-SO 11,4 C 15,4 C 0,0 km/h
27.05.2016 00:00 15,2 C 79 % 1010,0 hPa 0,0 l/m 0,0 km/h O 11,6 C 15,2 C 0,0 km/h
27.05.2016 01:00 13,6 C 82 % 1010,4 hPa 0,0 l/m 0,0 km/h O-NO 10,6 C 13,6 C 0,0 km/h
27.05.2016 02:00 13,5 C 83 % 1010,4 hPa 0,0 l/m 0,0 km/h O-NO 10,7 C 13,5 C 0,0 km/h
27.05.2016 03:00 12,8 C 84 % 1010,5 hPa 0,0 l/m 0,0 km/h O-NO 10,2 C 12,8 C 0,0 km/h
27.05.2016 04:00 12,9 C 85 % 1010,7 hPa 0,0 l/m 0,0 km/h O-NO 10,4 C 12,9 C 0,0 km/h
27.05.2016 05:00 12,1 C 85 % 1011,6 hPa 0,0 l/m 0,0 km/h O 9,7 C 12,1 C 0,0 km/h
27.05.2016 06:00 13,0 C 85 % 1012,0 hPa 0,0 l/m 0,0 km/h S 10,5 C 13,0 C 0,0 km/h
27.05.2016 07:00 16,3 C 85 % 1012,4 hPa 0,0 l/m 0,0 km/h W-SW 13,8 C 16,3 C 0,0 km/h
27.05.2016 08:00 19,6 C 77 % 1012,9 hPa 0,0 l/m 0,0 km/h NW 15,5 C 19,6 C 0,0 km/h
27.05.2016 09:00 22,3 C 65 % 1012,8 hPa 0,0 l/m 0,0 km/h W-NW 15,4 C 22,3 C 0,0 km/h
27.05.2016 10:00 23,6 C 63 % 1012,7 hPa 0,0 l/m 0,0 km/h SW 16,1 C 23,6 C 0,0 km/h
27.05.2016 11:00 26,2 C 58 % 1012,4 hPa 0,0 l/m 0,0 km/h N-NO 17,3 C 26,2 C 0,0 km/h
27.05.2016 12:00 27,1 C 53 % 1011,9 hPa 0,0 l/m 9,7 km/h NW 16,7 C 26,5 C 5,4 km/h
27.05.2016 13:00 28,5 C 45 % 1011,4 hPa 0,0 l/m 0,0 km/h W-NW 15,4 C 28,5 C 0,0 km/h
27.05.2016 14:00 29,7 C 46 % 1011,3 hPa 0,0 l/m 0,0 km/h SW 16,8 C 29,7 C 0,0 km/h
27.05.2016 15:00 30,5 C 43 % 1010,8 hPa 0,0 l/m 1,3 km/h N-NW 16,5 C 30,5 C 0,7 km/h
27.05.2016 16:00 31,6 C 41 % 1010,6 hPa 0,0 l/m 0,0 km/h S 16,7 C 31,6 C 0,0 km/h
27.05.2016 17:00 34,8 C 37 % 1010,3 hPa 0,0 l/m 0,0 km/h N 17,9 C 34,8 C 0,0 km/h
27.05.2016 18:00 32,4 C 35 % 1009,9 hPa 0,0 l/m 0,0 km/h N 14,9 C 32,4 C 0,0 km/h
27.05.2016 19:00 24,9 C 52 % 1010,1 hPa 0,0 l/m 0,0 km/h O-NO 14,4 C 24,9 C 0,0 km/h
27.05.2016 20:00 21,6 C 63 % 1010,3 hPa 0,0 l/m 0,0 km/h NO 14,2 C 21,6 C 0,0 km/h
27.05.2016 21:00 19,1 C 72 % 1011,3 hPa 0,0 l/m 0,0 km/h O-NO 13,9 C 19,1 C 0,0 km/h
27.05.2016 22:00 17,1 C 77 % 1011,2 hPa 0,0 l/m 0,0 km/h O-NO 13,0 C 17,1 C 0,0 km/h
27.05.2016 23:00 15,5 C 80 % 1011,1 hPa 0,0 l/m 0,0 km/h O-NO 12,1 C 15,5 C 0,0 km/h
28.05.2016 00:00 15,4 C 82 % 1010,9 hPa 0,0 l/m 0,0 km/h O-NO 12,3 C 15,4 C 0,0 km/h
28.05.2016 01:00 14,5 C 84 % 1010,5 hPa 0,0 l/m 0,0 km/h O-NO 11,8 C 14,5 C 0,0 km/h
28.05.2016 02:00 13,9 C 84 % 1011,2 hPa 0,0 l/m 0,0 km/h O-NO 11,2 C 13,9 C 0,0 km/h
28.05.2016 03:00 14,9 C 85 % 1011,9 hPa 0,0 l/m 0,0 km/h N 12,4 C 14,9 C 0,0 km/h
28.05.2016 04:00 15,6 C 85 % 1011,6 hPa 0,0 l/m 0,0 km/h N 13,1 C 15,6 C 0,0 km/h
28.05.2016 05:00 15,6 C 85 % 1011,3 hPa 0,0 l/m 0,0 km/h O-NO 13,1 C 15,6 C 0,0 km/h
28.05.2016 06:00 16,4 C 85 % 1011,0 hPa 0,0 l/m 0,0 km/h N-NO 13,9 C 16,4 C 0,0 km/h
28.05.2016 07:00 19,9 C 84 % 1011,2 hPa 0,0 l/m 0,0 km/h N 17,1 C 19,9 C 0,0 km/h
28.05.2016 08:00 22,1 C 70 % 1011,3 hPa 0,0 l/m 0,0 km/h N 16,4 C 22,1 C 0,0 km/h
28.05.2016 09:00 22,8 C 69 % 1010,5 hPa 0,0 l/m 0,0 km/h W-NW 16,8 C 22,8 C 0,0 km/h
28.05.2016 10:00 24,4 C 62 % 1010,4 hPa 0,0 l/m 7,1 km/h W 16,6 C 24,2 C 4,0 km/h
28.05.2016 11:00 26,4 C 60 % 1010,4 hPa 0,0 l/m 24,0 km/h W 18,0 C 24,1 C 13,3 km/h
28.05.2016 12:00 24,9 C 59 % 1009,8 hPa 0,0 l/m 17,5 km/h W-SW 16,3 C 22,8 C 9,7 km/h
28.05.2016 13:00 27,2 C 53 % 1009,5 hPa 0,0 l/m 21,4 km/h SW 16,8 C 25,4 C 11,9 km/h
28.05.2016 14:00 28,6 C 48 % 1008,5 hPa 0,0 l/m 4,5 km/h N 16,5 C 28,6 C 2,5 km/h
28.05.2016 15:00 29,1 C 43 % 1007,9 hPa 0,0 l/m 9,1 km/h W 15,2 C 28,8 C 5,0 km/h
28.05.2016 16:00 30,1 C 42 % 1007,3 hPa 0,0 l/m 0,0 km/h N-NW 15,7 C 30,1 C 0,0 km/h
28.05.2016 17:00 34,8 C 34 % 1006,6 hPa 0,0 l/m 0,0 km/h SW 16,6 C 34,8 C 0,0 km/h
28.05.2016 18:00 32,2 C 39 % 1005,8 hPa 0,0 l/m 0,0 km/h W 16,5 C 32,2 C 0,0 km/h
28.05.2016 19:00 26,3 C 47 % 1005,8 hPa 0,0 l/m 0,0 km/h W 14,1 C 26,3 C 0,0 km/h
28.05.2016 20:00 23,5 C 54 % 1005,4 hPa 0,0 l/m 0,0 km/h NO 13,6 C 23,5 C 0,0 km/h
28.05.2016 21:00 20,8 C 66 % 1006,0 hPa 0,0 l/m 0,0 km/h N-NO 14,2 C 20,8 C 0,0 km/h
28.05.2016 22:00 18,5 C 74 % 1005,4 hPa 0,0 l/m 0,0 km/h N-NW 13,8 C 18,5 C 0,0 km/h
28.05.2016 23:00 17,5 C 79 % 1006,6 hPa 0,0 l/m 1,3 km/h W-NW 13,8 C 17,5 C 0,7 km/h
29.05.2016 00:00 15,9 C 84 % 1006,0 hPa 1,2 l/m 0,0 km/h W-NW 13,2 C 15,9 C 0,0 km/h
29.05.2016 01:00 15,9 C 84 % 1004,8 hPa 0,4 l/m 1,9 km/h SW 13,2 C 15,9 C 1,1 km/h
29.05.2016 02:00 15,3 C 85 % 1008,1 hPa 0,0 l/m 2,6 km/h N-NO 12,8 C 15,3 C 1,4 km/h
29.05.2016 03:00 13,9 C 85 % 1004,9 hPa 0,8 l/m 9,7 km/h SO 11,4 C 12,0 C 5,4 km/h
29.05.2016 04:00 13,9 C 85 % 1004,5 hPa 0,4 l/m 0,0 km/h SO 11,4 C 13,9 C 0,0 km/h
29.05.2016 05:00 13,8 C 85 % 1004,4 hPa 0,0 l/m 0,0 km/h SW 11,3 C 13,8 C 0,0 km/h
29.05.2016 06:00 13,1 C 85 % 1004,4 hPa 0,0 l/m 0,0 km/h N-NW 10,6 C 13,1 C 0,0 km/h
29.05.2016 07:00 14,8 C 84 % 1004,4 hPa 0,0 l/m 0,0 km/h S-SO 12,1 C 14,8 C 0,0 km/h
29.05.2016 08:00 15,2 C 85 % 1004,9 hPa 0,0 l/m 0,0 km/h S-SO 12,7 C 15,2 C 0,0 km/h
29.05.2016 09:00 15,8 C 85 % 1004,6 hPa 0,0 l/m 0,0 km/h S-SO 13,3 C 15,8 C 0,0 km/h
29.05.2016 10:00 18,4 C 85 % 1004,6 hPa 0,0 l/m 0,0 km/h SO 15,8 C 18,4 C 0,0 km/h
29.05.2016 11:00 20,8 C 75 % 1003,9 hPa 0,0 l/m 0,6 km/h SO 16,2 C 20,8 C 0,4 km/h
29.05.2016 12:00 21,2 C 70 % 1003,5 hPa 0,0 l/m 0,0 km/h O-SO 15,5 C 21,2 C 0,0 km/h
29.05.2016 13:00 21,8 C 69 % 1003,7 hPa 0,0 l/m 0,0 km/h NO 15,9 C 21,8 C 0,0 km/h
29.05.2016 14:00 20,9 C 71 % 1003,9 hPa 0,0 l/m 0,0 km/h SO 15,4 C 20,9 C 0,0 km/h
29.05.2016 15:00 19,9 C 76 % 1003,7 hPa 0,0 l/m 5,8 km/h SO 15,5 C 19,9 C 3,2 km/h
29.05.2016 16:00 20,3 C 76 % 1003,9 hPa 0,0 l/m 0,0 km/h W-SW 15,9 C 20,3 C 0,0 km/h
29.05.2016 17:00 19,0 C 78 % 1003,6 hPa 0,0 l/m 7,1 km/h W-SW 15,1 C 18,7 C 4,0 km/h
29.05.2016 18:00 18,6 C 77 % 1003,9 hPa 0,0 l/m 0,0 km/h S-SO 14,5 C 18,6 C 0,0 km/h
29.05.2016 19:00 18,0 C 78 % 1003,7 hPa 0,0 l/m 0,0 km/h SO 14,1 C 18,0 C 0,0 km/h
29.05.2016 20:00 16,7 C 79 % 1004,0 hPa 0,0 l/m 0,0 km/h O-SO 13,0 C 16,7 C 0,0 km/h
29.05.2016 21:00 16,0 C 81 % 1004,3 hPa 0,0 l/m 0,0 km/h NO 12,7 C 16,0 C 0,0 km/h
29.05.2016 22:00 15,2 C 84 % 1004,5 hPa 0,0 l/m 0,0 km/h S-SO 12,5 C 15,2 C 0,0 km/h
29.05.2016 23:00 15,1 C 85 % 1004,9 hPa 0,4 l/m 3,2 km/h S 12,6 C 15,1 C 1,8 km/h
Min-Datum _ 25.05.16 28.05.16 29.05.16 - 23.05.16 - 25.05.16 23.05.16 23.05.16
_ Min-Zeit 05:41 17:41 12:41 - 13:41 - 05:41 09:41 13:41
Minimum _ 5,5 C 34 % 1003,5 hPa - 0,0 km/h - 3,3 C 1,6 C 0,0 km/h
Max-Datum _ 27.05.16 25.05.16 24.05.16 23.05.16 23.05.16 - 28.05.16 27.05.16 23.05.16
_ Max-Zeit 17:41 01:41 10:41 23:41 09:41 - 11:41 17:41 09:41
Maximum _ 34,8 C 87 % 1014,3 hPa 1,7 l/m 24,0 km/h
W-SW
- 18,0 C 34,8 C 13,3 km/h
W-SW
Durchschnitt _ 16,7 C 73 % 1010,6 hPa #18,6 l/m 2,1 km/h W 11,4 C 16,4 C 1,2 km/h
www.sexauwetter.de